Mackinaw City, MI

12:35 PM EDT on October 31, 2014 (GMT -0400)
KMIMACKI2 | Change Station
CLOSE
Current Station
Personal Weather Station
Location: Mackinac Island, MI
Elevation: 594 ft
Nearby Weather Stations
Active Advisory: Wind Advisory

Elev 594 ft 45.85 °N, 84.62 °W | Updated 2 minutes ago

Overcast
Overcast
34.4 °F
Feels Like 26 °F
N
12.0
Wind Variable Wind from NNE

Today
High -- | Low -- °F
--% Chance of Precip.
Yesterday
High -- | Low -- °F
Precip. -- in
8:17 AM 6:26 PM
First Quarter, 57% visible
Pressure 30.21 in
Visibility 10.0 miles
Clouds Mostly Cloudy 2600 ft
Overcast 3300 ft
Windchill 26 °F
Dew Point 28 °F
Humidity 76%
Rainfall 0.00 in
Snow Depth Not available.
UV 1 out of 12
Pollen .10 out of 12
Air Quality Not available.
Flu Activity Not available.
METAR KMCD 311619Z AUTO 02018G27KT 10SM BKN026 OVC033 01/M04 A3021 RMK AO2 T00081038

More Conditions Fewer Conditions

Pressure 30.21 in
Visibility 10.0 miles
Clouds Mostly Cloudy 2600 ft
Overcast 3300 ft
Windchill 26 °F
Dew Point 28 °F
Humidity 76%
Rainfall 0.00 in
Snow Depth Not available.
UV 1 out of 12
Pollen .10 out of 12
Air Quality Not available.
Flu Activity Not available.
METAR KMCD 311619Z AUTO 02018G27KT 10SM BKN026 OVC033 01/M04 A3021 RMK AO2 T00081038

More Conditions Fewer Conditions

Nowcast | as of 12:00 PM EDT on October 31, 2014

Wind Advisory in effect until 8 PM EDT this evening... At 1 PM...rain and snow. Temperature 35. North winds 21 mph with gusts to 35 mph. At 3 PM...mostly cloudy. Chance of snow. Temperature 35. North winds 19 mph with gusts to 35 mph. At 5 PM...mostly cloudy. Chance of snow. Temperature 35. North winds 18 mph with gusts to 30 mph. At 7 PM...partly cloudy. Chance of snow. Temperature 33. North winds 17 mph with gusts to 30 mph.

×

10-Day Weather Forecast

Almanac

Astronomy

Oct. 31, 2014 Rise Set
Actual Time
Civil Twilight
Nautical Twilight
Astronomical Twilight
Moon
Length of Visible Light
Length of Day
Tomorrow will be .
, % of the Moon is Illuminated

Today's Extremes

State Highs State Lows

Community

WunderPhotos

Upload Photos

1,766,656 photos uploaded!

WunderBlogs® & News

Nearby

Air Quality

  Air Quality AQ Index Pollutant
Not available.

Snow Depth

Station Depth Elevation

Earthquake Activity

City Distance Mag. Time & Date
Minimum magnitude displayed is 2.5.

Coastal Water Temperatures

Place Temperature

Nearby Weather Stations